Fort Lauderdale, FL

3:38 PM EDT on August 27, 2015 (GMT -0400)
Victoria Park | | Change Station
CLOSE
Current Station
Personal Weather Station
Location: Fort Lauderdale, FL
Elevation: 30 ft
Nearby Weather Stations

Elev 30 ft 26.13 °N, 80.13 °W | Updated 13 minutes ago

Overcast
Overcast
88.5 °F
Feels Like 99 °F
N
0.0
Wind Variable Wind from SSW

Today
High -- | Low -- °F
--% Chance of Precip.
Yesterday
High -- | Low -- °F
Precip. -- in
6:58 AM 7:45 PM
Waxing Gibbous, 94% visible
Pressure 29.98 in
Visibility 10.0 miles
Clouds Mostly Cloudy 6000 ft
Heat Index 99 °F
Dew Point 75 °F
Humidity 65%
Rainfall 0.01 in
Snow Depth Not available.
UV 7 out of 12
Pollen .60 out of 12
Air Quality Not available.
Flu Activity Not available.
METAR KFXE 271853Z VRB03KT 10SM BKN060 29/22 A2997 RMK AO2 SLP150 T02890217
Pressure 29.98 in
Visibility 10.0 miles
Clouds Mostly Cloudy 6000 ft
Heat Index 99 °F
Dew Point 75 °F
Humidity 65%
Rainfall 0.01 in
Snow Depth Not available.
UV 7 out of 12
Pollen .60 out of 12
Air Quality Not available.
Flu Activity Not available.
METAR KFXE 271853Z VRB03KT 10SM BKN060 29/22 A2997 RMK AO2 SLP150 T02890217
Nowcast | as of 2:31 PM EDT on August 27, 2015

Gusty showers and lightning storms will move across Lake Okeechobee and far northeastern Hendry County into Palm Beach County through the mid afternoon hours. Gusty winds up to 40 mph...frequent lightning and heavy rainfall will be possible with this activity as it moves to the east-northeast at 10 to 15 mph. Elsewhere...a line of showers and storms moving across the eastern Gulf of Mexico will push into Collier County through the late afternoon hours. Additional isolated shower and storms development may be possible through the remainder of the region.

×

10-Day Weather Forecast

×

Almanac

Astronomy

Aug. 27, 2015 Rise Set
Actual Time
Civil Twilight
Nautical Twilight
Astronomical Twilight
Moon
Length of Visible Light
Length of Day
Tomorrow will be .
, % of the Moon is Illuminated

Today's Extremes

State Highs State Lows

Community

WunderPhotos

Upload Photos

1,850,195 photos uploaded!

WunderBlogs® & News

Nearby

Air Quality

  Air Quality AQ Index Pollutant
Not available.

Snow Depth

Station Depth Elevation

Earthquake Activity

City Distance Mag. Time & Date
Minimum magnitude displayed is 2.5.

Coastal Water Temperatures

Place Temperature

Stations

Nearby Weather Stations

Station Location Temp. Windchill Dew Point Humidity Wind Precip. Elev Updated Type